Kihnu, Estonia

11:58 PM EEST on September 24, 2016 (GMT +0300)
Kuressaare | | Change Station

Elev 13 ft 58.23 °N, 22.51 °E | Updated 8 minutes ago

Overcast
Overcast
46 °F
Feels Like 46 °F
N
1
Wind Variable Wind from Variable

Today
High -- | Low -- °F
--% Chance of Precip.
Yesterday
High -- | Low -- °F
Precip. -- in
Pressure 30.21 in
Visibility 6.2 miles
Clouds Overcast 3600 ft
Dew Point 46 °F
Humidity 100%
Rainfall 0.00 in
Snow Depth Not available.
7:13 AM 7:17 PM
Waning Crescent, 34% visible
METAR EEKE 242050Z AUTO VRB01KT 9999NDV OVC036 08/08 Q1023
Pressure 30.21 in
Visibility 6.2 miles
Clouds Overcast 3600 ft
Dew Point 46 °F
Humidity 100%
Rainfall 0.00 in
Snow Depth Not available.
7:13 AM 7:17 PM
Waning Crescent, 34% visible
METAR EEKE 242050Z AUTO VRB01KT 9999NDV OVC036 08/08 Q1023

10-Day Weather Forecast

×

Almanac

Astronomy

Sep. 24, 2016 Rise Set
Actual Time
Civil Twilight
Nautical Twilight
Astronomical Twilight
Moon
Length of Visible Light
Length of Day
Tomorrow will be .
, % of the Moon is Illuminated

Today's Extremes

Country Highs Country Lows

Community

WunderPhotos

Upload Photos

1,941,423 photos uploaded!

WunderBlog® & News

Nearby

Air Quality

  Air Quality AQ Index Pollutant
Not available.

Snow Depth

Station Depth Elevation

Earthquake Activity

City Distance Mag. Time & Date
Minimum magnitude displayed is 2.5.

Coastal Water Temperatures

Place Temperature

Stations

Nearby Weather Stations

Station Location Temp. Windchill Dew Point Humidity Wind Precip. Elev Updated Type